Jackson Hole, Wyoming
Current Conditions -  °F | °C
As of 7:51 PM on Sunday 23 Nov 2014 (Local Time) from KJAC Reporting Station
Haze Haze  
Wind Chill: 13°   Ceiling: 2300
Heat Index: 25°   Visibility: 2mi
Dew Point: 23°   Wind: 14mph
Humidity: 93%   Direction: 170°S
Pressure: 30.01"   Gusts: NA
Location:  43.48°N, 110.761°W
Report Text: KJAC 240251Z 17012KT 2SM BR OVC023 M04/M05 A3001
Loading
Personal Weather Stations






























Interactive Weather Map New forecast layout! Learn more

10-Day Weather Forecast

Advertisements
Track Severe Weather on mobile